Marietta, PA (17547)

6:16 AM EDT on April 21, 2015 (GMT -0400)
Maytown, East Donegal Township | | Change Station
CLOSE
Current Station
Personal Weather Station
Location: Maytown, PA
Elevation: 397 ft
Nearby Weather Stations

Elev 397 ft 40.08 °N, 76.58 °W | Updated 9 minutes ago

Overcast
Overcast
52.3 °F
Feels Like 52.3 °F
N
10.0
Wind Variable Wind from NW
Gusts 13.0 mph

Today
High -- | Low -- °F
--% Chance of Precip.
Yesterday
High -- | Low -- °F
Precip. -- in
6:19 AM 7:50 PM
Waxing Crescent, 9% visible
Pressure 29.68 in
Visibility 10.0 miles
Clouds Few 4800 ft
Mostly Cloudy 6000 ft
Overcast 8500 ft
Dew Point 48 °F
Humidity 84%
Rainfall 0.05 in
Snow Depth Not available.
UV 0 out of 12
Pollen .50 out of 12
Air Quality Not available.
Flu Activity Sporadic
METAR KMDT 210956Z 31011KT 10SM FEW048 BKN060 OVC085 12/06 A2967 RMK AO2 RAE45 SLP048 P0002 T01170061

More Conditions Fewer Conditions

Pressure 29.68 in
Visibility 10.0 miles
Clouds Few 4800 ft
Mostly Cloudy 6000 ft
Overcast 8500 ft
Dew Point 48 °F
Humidity 84%
Rainfall 0.05 in
Snow Depth Not available.
UV 0 out of 12
Pollen .50 out of 12
Air Quality Not available.
Flu Activity Sporadic
METAR KMDT 210956Z 31011KT 10SM FEW048 BKN060 OVC085 12/06 A2967 RMK AO2 RAE45 SLP048 P0002 T01170061

More Conditions Fewer Conditions

Nowcast | as of 6:08 am EDT on April 21, 2015

Isolated light rain showers will linger across the region through 7 am.

×

10-Day Weather Forecast

Almanac

Astronomy

Apr. 21, 2015 Rise Set
Actual Time
Civil Twilight
Nautical Twilight
Astronomical Twilight
Moon
Length of Visible Light
Length of Day
Tomorrow will be .
, % of the Moon is Illuminated

Today's Extremes

State Highs State Lows

Community

WunderPhotos

Upload Photos

1,815,337 photos uploaded!

WunderBlogs® & News

Nearby

Air Quality

  Air Quality AQ Index Pollutant
Not available.

Snow Depth

Station Depth Elevation

Earthquake Activity

City Distance Mag. Time & Date
Minimum magnitude displayed is 2.5.

Coastal Water Temperatures

Place Temperature

Stations

Nearby Weather Stations

Station Location Temp. Windchill Dew Point Humidity Wind Precip. Elev Updated Type